createdAt,value
2023-01-26T13:00:09.931Z,101347.84
2023-01-26T13:02:38.053Z,101343.31
2023-01-26T13:05:08.028Z,101338.19
2023-01-26T13:07:37.002Z,101343.16
2023-01-26T13:10:11.359Z,101345.09
2023-01-26T13:12:46.890Z,101346.16
2023-01-26T13:15:17.764Z,101337.16
2023-01-26T13:18:01.011Z,101323.00
2023-01-26T13:20:44.625Z,101339.25
2023-01-26T13:23:41.168Z,101331.47
2023-01-26T13:26:15.970Z,101322.09
2023-01-26T13:28:43.590Z,101326.31
2023-01-26T13:31:12.990Z,101322.97
2023-01-26T13:33:41.479Z,101321.25
2023-01-26T13:36:17.567Z,101325.53
2023-01-26T13:38:48.992Z,101328.69
2023-01-26T13:41:20.889Z,101326.84
2023-01-26T13:43:52.329Z,101329.06
2023-01-26T13:46:26.498Z,101323.22
2023-01-26T13:48:55.559Z,101321.38
2023-01-26T13:51:24.722Z,101323.81
2023-01-26T13:54:03.867Z,101310.66
2023-01-26T13:56:33.672Z,101325.91
2023-01-26T13:59:06.926Z,101320.41
2023-01-26T14:01:42.749Z,101327.91
2023-01-26T14:04:16.358Z,101326.41
2023-01-26T14:06:47.885Z,101328.72
2023-01-26T14:09:16.404Z,101325.13
2023-01-26T14:11:44.445Z,101320.84
2023-01-26T14:14:22.455Z,101325.84
2023-01-26T14:16:51.308Z,101328.09
2023-01-26T14:19:21.338Z,101324.50
2023-01-26T14:21:51.918Z,101326.88
2023-01-26T14:24:21.177Z,101328.00
2023-01-26T14:26:49.204Z,101334.78
2023-01-26T14:29:21.836Z,101343.22
2023-01-26T14:31:51.404Z,101342.03
2023-01-26T14:34:23.720Z,101333.72
2023-01-26T14:37:06.993Z,101331.56
2023-01-26T14:39:34.968Z,101331.34
2023-01-26T14:42:02.975Z,101332.28
2023-01-26T14:44:30.861Z,101333.81
2023-01-26T14:47:03.081Z,101325.84
2023-01-26T14:49:43.129Z,101325.91
2023-01-26T14:52:19.226Z,101326.25
2023-01-26T14:54:47.167Z,101328.91
2023-01-26T14:57:20.328Z,101331.38
2023-01-26T14:59:50.633Z,101329.91
2023-01-26T15:02:22.418Z,101334.72
2023-01-26T15:04:54.429Z,101336.91
2023-01-26T15:07:24.206Z,101339.63
2023-01-26T15:09:56.090Z,101343.41
2023-01-26T15:12:26.565Z,101336.41
2023-01-26T15:14:58.550Z,101338.22
2023-01-26T15:17:45.649Z,101333.25
2023-01-26T15:20:40.179Z,101329.28
2023-01-26T15:23:22.027Z,101336.56
2023-01-26T15:25:50.106Z,101326.78
2023-01-26T15:28:19.556Z,101324.78
2023-01-26T15:30:49.817Z,101321.78
2023-01-26T15:33:50.494Z,101326.59
2023-01-26T15:36:26.830Z,101320.28
2023-01-26T15:38:59.685Z,101314.47
2023-01-26T15:41:27.880Z,101319.78
2023-01-26T15:43:55.877Z,101320.13
2023-01-26T15:46:23.478Z,101314.31
2023-01-26T15:48:52.718Z,101319.66
2023-01-26T15:51:20.318Z,101318.97
2023-01-26T15:53:47.835Z,101315.97
2023-01-26T15:56:17.084Z,101314.78
2023-01-26T15:58:44.682Z,101321.63
2023-01-26T16:01:17.404Z,101318.16
2023-01-26T16:03:45.330Z,101320.47
2023-01-26T16:06:21.193Z,101325.63
2023-01-26T16:08:48.924Z,101329.97
2023-01-26T16:11:16.640Z,101323.94
2023-01-26T16:13:53.984Z,101321.84
2023-01-26T16:16:30.296Z,101326.97
2023-01-26T16:18:58.542Z,101318.66
2023-01-26T16:21:31.644Z,101336.25
2023-01-26T16:23:59.384Z,101329.28
2023-01-26T16:26:27.836Z,101326.66
2023-01-26T16:28:55.702Z,101328.63
2023-01-26T16:31:28.157Z,101325.97
2023-01-26T16:33:55.995Z,101328.97
2023-01-26T16:36:24.834Z,101334.97
2023-01-26T16:38:53.834Z,101346.63
2023-01-26T16:41:25.500Z,101345.22
2023-01-26T16:43:55.430Z,101337.44
2023-01-26T16:46:23.245Z,101343.94
2023-01-26T16:48:51.296Z,101344.75
2023-01-26T16:51:21.867Z,101343.56
2023-01-26T16:53:49.616Z,101340.56
2023-01-26T16:56:19.682Z,101346.16
2023-01-26T16:58:47.979Z,101352.44
2023-01-26T17:01:19.221Z,101352.44
2023-01-26T17:03:47.223Z,101341.22
2023-01-26T17:06:15.719Z,101341.88
2023-01-26T17:08:44.587Z,101335.56
2023-01-26T17:11:18.559Z,101332.91
2023-01-26T17:13:46.656Z,101329.22
2023-01-26T17:16:16.408Z,101329.59
2023-01-26T17:18:45.074Z,101328.59
2023-01-26T17:21:13.163Z,101335.41
2023-01-26T17:23:44.393Z,101332.28
2023-01-26T17:26:13.718Z,101329.81
2023-01-26T17:28:42.698Z,101333.75
2023-01-26T17:31:11.381Z,101337.44
2023-01-26T17:33:39.641Z,101347.94
2023-01-26T17:36:08.405Z,101344.25
2023-01-26T17:38:36.386Z,101349.94
2023-01-26T17:41:04.238Z,101360.91
2023-01-26T17:43:31.960Z,101359.88
2023-01-26T17:46:05.388Z,101351.59
2023-01-26T17:48:33.887Z,101354.59
2023-01-26T17:51:01.568Z,101354.75
2023-01-26T17:53:29.533Z,101359.88
2023-01-26T17:55:57.151Z,101362.22
2023-01-26T17:58:24.844Z,101367.19
2023-01-26T18:00:52.740Z,101357.91
2023-01-26T18:03:26.257Z,101356.88
2023-01-26T18:05:54.876Z,101358.56
2023-01-26T18:08:22.765Z,101358.06
2023-01-26T18:10:50.765Z,101354.22
2023-01-26T18:13:18.499Z,101354.88
2023-01-26T18:15:46.332Z,101369.00
2023-01-26T18:18:14.720Z,101361.72
2023-01-26T18:20:44.194Z,101358.91
2023-01-26T18:23:11.884Z,101355.91
2023-01-26T18:25:40.181Z,101362.53
2023-01-26T18:28:08.329Z,101356.88
2023-01-26T18:30:36.022Z,101362.72
2023-01-26T18:33:03.664Z,101362.88
2023-01-26T18:35:31.740Z,101365.88
2023-01-26T18:38:00.796Z,101366.81
2023-01-26T18:40:28.676Z,101364.88
2023-01-26T18:42:56.534Z,101364.88
2023-01-26T18:45:24.557Z,101375.63
2023-01-26T18:47:52.354Z,101378.78
2023-01-26T18:50:20.076Z,101379.94
2023-01-26T18:52:47.747Z,101378.75
2023-01-26T18:55:17.069Z,101379.56
2023-01-26T18:57:44.770Z,101383.41
2023-01-26T19:00:13.857Z,101385.78
2023-01-26T19:02:41.749Z,101392.53
2023-01-26T19:05:10.528Z,101388.75
2023-01-26T19:07:38.698Z,101384.41
2023-01-26T19:10:07.131Z,101382.09
2023-01-26T19:12:36.327Z,101384.28
2023-01-26T19:15:04.249Z,101382.47
2023-01-26T19:17:32.130Z,101386.41
2023-01-26T19:19:59.840Z,101389.25
2023-01-26T19:22:27.434Z,101390.09
2023-01-26T19:24:55.137Z,101385.06
2023-01-26T19:27:22.747Z,101385.31
2023-01-26T19:29:54.300Z,101395.53
2023-01-26T19:32:21.924Z,101386.75
2023-01-26T19:34:49.665Z,101393.00
2023-01-26T19:37:17.300Z,101389.41
2023-01-26T19:39:44.896Z,101389.56
2023-01-26T19:42:12.633Z,101386.41
2023-01-26T19:44:40.328Z,101392.72
2023-01-26T19:47:09.576Z,101395.69
2023-01-26T19:49:37.290Z,101394.72
2023-01-26T19:52:05.229Z,101400.38
2023-01-26T19:54:32.960Z,101403.16
2023-01-26T19:57:00.708Z,101405.88
2023-01-26T19:59:28.273Z,101395.56
2023-01-26T20:01:56.125Z,101402.66
2023-01-26T20:04:25.300Z,101397.03
2023-01-26T20:06:53.164Z,101399.69
2023-01-26T20:09:20.875Z,101405.31
2023-01-26T20:11:50.265Z,101402.50
2023-01-26T20:14:17.893Z,101400.50
2023-01-26T20:16:45.594Z,101406.31
2023-01-26T20:19:14.338Z,101398.69
2023-01-26T20:21:43.401Z,101403.66
2023-01-26T20:24:13.933Z,101405.16
2023-01-26T20:26:43.546Z,101405.59
2023-01-26T20:29:13.875Z,101400.63
2023-01-26T20:31:42.098Z,101394.84
2023-01-26T20:34:10.445Z,101407.59
2023-01-26T20:36:38.697Z,101408.94
2023-01-26T20:39:09.155Z,101398.31
2023-01-26T20:41:36.749Z,101404.09
2023-01-26T20:44:06.841Z,101400.78
2023-01-26T20:46:37.571Z,101398.66
2023-01-26T20:49:05.791Z,101408.56
2023-01-26T20:51:35.784Z,101396.94
2023-01-26T20:54:06.396Z,101398.25
2023-01-26T20:56:36.529Z,101399.19
2023-01-26T20:59:04.999Z,101386.94
2023-01-26T21:01:34.523Z,101389.63
2023-01-26T21:04:03.062Z,101392.06
2023-01-26T21:06:31.674Z,101396.59
2023-01-26T21:09:00.727Z,101402.59
2023-01-26T21:11:30.607Z,101395.56
2023-01-26T21:14:02.003Z,101405.56
2023-01-26T21:16:31.054Z,101402.41
2023-01-26T21:18:59.196Z,101400.28
2023-01-26T21:21:27.112Z,101410.22
2023-01-26T21:23:54.745Z,101413.31
2023-01-26T21:26:24.081Z,101410.50
2023-01-26T21:28:52.729Z,101407.84
2023-01-26T21:31:23.744Z,101404.03
2023-01-26T21:33:52.151Z,101406.53
2023-01-26T21:36:21.790Z,101404.19
2023-01-26T21:38:52.079Z,101413.13
2023-01-26T21:41:41.207Z,101414.94
2023-01-26T21:44:11.560Z,101413.69
2023-01-26T21:46:40.927Z,101409.16
2023-01-26T21:49:09.079Z,101413.03
2023-01-26T21:51:54.292Z,101405.16
2023-01-26T21:54:22.015Z,101405.78
2023-01-26T21:56:49.618Z,101403.66
2023-01-26T21:59:17.989Z,101394.84
2023-01-26T22:01:48.678Z,101397.66
2023-01-26T22:04:17.731Z,101402.56
2023-01-26T22:06:45.628Z,101413.16
2023-01-26T22:09:14.896Z,101404.16
2023-01-26T22:11:42.554Z,101407.47
2023-01-26T22:14:14.880Z,101410.91
2023-01-26T22:16:42.692Z,101418.72
2023-01-26T22:19:12.569Z,101414.34
2023-01-26T22:21:40.879Z,101412.69
2023-01-26T22:24:11.732Z,101407.19
2023-01-26T22:26:40.031Z,101411.00
2023-01-26T22:29:08.555Z,101408.19
2023-01-26T22:31:36.308Z,101406.03
2023-01-26T22:34:04.359Z,101402.16
2023-01-26T22:36:33.687Z,101400.66
2023-01-26T22:39:01.377Z,101406.34
2023-01-26T22:41:30.012Z,101400.84
2023-01-26T22:43:59.107Z,101414.59
2023-01-26T22:46:28.060Z,101411.41
2023-01-26T22:48:57.172Z,101407.91
2023-01-26T22:51:26.722Z,101410.63
2023-01-26T22:53:56.525Z,101416.44
2023-01-26T22:56:24.538Z,101427.03
2023-01-26T22:58:58.120Z,101425.28
2023-01-26T23:01:27.368Z,101421.44
2023-01-26T23:03:56.453Z,101431.22
2023-01-26T23:06:24.353Z,101435.53
2023-01-26T23:08:52.100Z,101433.31
2023-01-26T23:11:23.587Z,101432.78
2023-01-26T23:13:52.296Z,101433.81
2023-01-26T23:16:21.409Z,101430.91
2023-01-26T23:18:49.015Z,101430.59
2023-01-26T23:21:16.637Z,101426.06
2023-01-26T23:23:44.386Z,101434.22
2023-01-26T23:26:12.312Z,101426.94
2023-01-26T23:28:42.326Z,101426.19
2023-01-26T23:31:10.793Z,101424.56
2023-01-26T23:33:39.619Z,101431.84
2023-01-26T23:36:08.505Z,101436.81
2023-01-26T23:38:36.540Z,101424.13
2023-01-26T23:41:05.504Z,101435.34
2023-01-26T23:43:33.625Z,101429.75
2023-01-26T23:46:03.373Z,101441.00
2023-01-26T23:48:31.056Z,101442.94
2023-01-26T23:50:59.957Z,101443.03
2023-01-26T23:53:28.137Z,101445.88
2023-01-26T23:55:56.104Z,101455.56
2023-01-26T23:58:23.890Z,101447.00
